Google Maps JavaScript API Example
Pilot Flight Report # 93792 Submitted by : AST154 on 2020-03-24
Date: 2020-03-24Aircraft: Boeing 737-800
Flight No.: AST26623Distance (Nm): 728.13
Departure: MMCZ - Cozumel IntlDestination: KIAH - G Bush Intercontinental/Houst
 TimeFuelWeightSpeeds  
Out (Taxi)1900Z31399 lbs139961 lbs Flight RulesIFR
Off (Takeoff)1905Z 139354 lbs188 ktsFlight Level34000
On (Landing)2101Z 120225 lbs138 ktsVSTD-688 ft/min
In (Ramp)2108Z11181 lbs119741 lbs ZFW108560 lbs
Flight1.90  -  1:5619127 lbs  Pax0
Block2.13  -  2:0820218 lbs  Cargo0
Departure WeatherMMCZ 241856Z 00000KT 62SM SKC 15/5 A2992
Destination WeatherKIAH 242108Z 21711KT 19SM FEW038 SCT537 28/18 A2985
Flight CommentsGreat flight...